Masonville, Iowa
Current Conditions -  °F | °C
As of 7:35 AM on Sunday 23 Nov 2014 (Local Time) from KIIB Reporting Station
Haze Haze  
Wind Chill: 50°   Ceiling: 400
Heat Index: 50°   Visibility: 5mi
Dew Point: 50°   Wind: 15mph
Humidity: 100%   Direction: 160°SSE
Pressure: 29.56"   Gusts: NA
Location:  42.48°N, 91.59°W
Report Text: KIIB 231335Z AUTO 16013KT 5SM BR OVC004 10/10 A2956 RMK AO2
Loading
Personal Weather Stations






























Interactive Weather Map New forecast layout! Learn more

10-Day Weather Forecast

Advertisements
Track Severe Weather on mobile